Avare, Brazil
Current Conditions -  °F | °C
As of 1:00 PM on Friday 19 Dec 2014 (Local Time) from SBBU Reporting Station
Scattered Clouds Scattered Clouds  
Wind Chill: 86°   Ceiling: Unl
Heat Index: 95°   Visibility: 6mi
Dew Point: 75°   Wind: 0mph
Humidity: 70%   Direction: NA
Pressure: 29.85"   Gusts: NA
Location:  23.11°S, 48.93°W
Report Text: SBBU 191500Z 00000KT 9999 SCT035 FEW040TCU 30/24 Q1011
Loading
Personal Weather Stations






























Interactive Weather Map New forecast layout! Learn more

10-Day Weather Forecast

Advertisements
Track Severe Weather on mobile